Time;durP1;ratioP1;P1;durP2;ratioP2;P2;SDS_P1;SDS_P2;PMS_P1;PMS_P2;Temp;Humidity;BMP_temperature;BMP_pressure;BME280_temperature;BME280_humidity;BME280_pressure;Samples;Min_cycle;Max_cycle;Signal;HPM_P1;HPM_P2
2022/07/08 00:00:17;;;;;;;7.00;2.07;;;18.60;69.80;;;;;;4995630;28;20456;-73
2022/07/08 00:02:46;;;;;;;4.73;2.03;;;18.60;70.00;;;;;;4995419;28;21014;-74
2022/07/08 00:05:13;;;;;;;7.77;2.60;;;18.60;70.10;;;;;;4995428;28;20472;-73
2022/07/08 00:07:40;;;;;;;7.57;2.23;;;18.70;70.70;;;;;;4995392;28;20472;-73
2022/07/08 00:10:08;;;;;;;4.93;1.93;;;18.70;70.70;;;;;;4995055;28;20471;-73
2022/07/08 00:12:35;;;;;;;8.43;2.20;;;18.70;70.50;;;;;;4995105;28;20488;-73
2022/07/08 00:15:04;;;;;;;8.03;2.07;;;18.70;70.60;;;;;;4994771;28;21029;-73
2022/07/08 00:17:30;;;;;;;7.50;2.40;;;18.70;70.60;;;;;;4995481;28;20459;-73
2022/07/08 00:19:59;;;;;;;8.30;2.00;;;18.70;71.30;;;;;;4994885;28;20448;-73
2022/07/08 00:22:25;;;;;;;4.10;1.40;;;18.70;71.40;;;;;;4995339;28;20478;-73
2022/07/08 00:24:52;;;;;;;6.90;2.70;;;18.60;71.30;;;;;;4995512;28;20482;-73
2022/07/08 00:27:19;;;;;;;8.73;1.97;;;18.70;71.40;;;;;;4995194;28;20448;-73
2022/07/08 00:29:46;;;;;;;11.00;2.57;;;18.60;70.70;;;;;;4995122;28;20458;-73
2022/07/08 00:32:13;;;;;;;5.67;2.37;;;18.60;70.90;;;;;;4995440;28;20492;-73
2022/07/08 00:34:40;;;;;;;8.53;2.27;;;18.60;71.00;;;;;;4995240;28;20991;-73
2022/07/08 00:37:08;;;;;;;5.70;1.87;;;18.50;70.60;;;;;;4995203;28;20518;-73
2022/07/08 00:39:35;;;;;;;7.03;1.80;;;18.50;70.70;;;;;;4995085;28;20460;-73
2022/07/08 00:42:02;;;;;;;5.10;2.30;;;18.50;70.80;;;;;;4995229;28;20456;-73
2022/07/08 00:44:29;;;;;;;8.17;2.27;;;18.40;70.80;;;;;;4995206;28;20507;-73
2022/07/08 00:46:56;;;;;;;8.73;2.17;;;18.40;70.60;;;;;;4995088;28;20455;-73
2022/07/08 00:49:24;;;;;;;9.27;2.47;;;18.40;70.60;;;;;;4994973;28;20967;-73
2022/07/08 00:51:51;;;;;;;5.57;1.90;;;18.30;70.60;;;;;;4995149;28;20455;-73
2022/07/08 00:54:22;;;;;;;8.27;2.80;;;18.30;70.80;;;;;;4994971;28;20480;-73
2022/07/08 00:56:49;;;;;;;5.10;1.97;;;18.30;71.10;;;;;;4995079;28;20448;-73
2022/07/08 00:59:17;;;;;;;7.27;2.13;;;18.30;71.50;;;;;;4995413;28;20460;-73
2022/07/08 01:01:45;;;;;;;5.30;1.97;;;18.30;71.50;;;;;;4995064;28;20452;-72
2022/07/08 01:04:12;;;;;;;11.40;2.40;;;18.30;72.20;;;;;;4994597;28;21014;-73
2022/07/08 01:06:39;;;;;;;11.47;2.50;;;18.20;71.70;;;;;;4995036;28;20456;-73
2022/07/08 01:09:07;;;;;;;3.10;1.60;;;18.20;72.40;;;;;;4995291;28;20456;-73
2022/07/08 01:11:35;;;;;;;13.93;2.90;;;18.10;72.50;;;;;;4995051;28;20543;-74
2022/07/08 01:14:03;;;;;;;8.20;2.20;;;18.10;72.40;;;;;;4994366;28;20500;-72
2022/07/08 01:16:30;;;;;;;4.27;1.70;;;18.20;72.80;;;;;;4994726;28;20463;-73
2022/07/08 01:18:57;;;;;;;8.10;1.80;;;18.10;73.00;;;;;;4994704;28;20454;-73
2022/07/08 01:21:25;;;;;;;9.63;1.97;;;18.10;72.80;;;;;;4994699;28;20452;-73
2022/07/08 01:23:51;;;;;;;10.00;1.90;;;18.10;72.80;;;;;;4994343;28;20476;-73
2022/07/08 01:26:19;;;;;;;10.27;2.33;;;18.10;72.70;;;;;;4995766;28;20454;-74
2022/07/08 01:28:46;;;;;;;6.23;2.30;;;18.10;72.90;;;;;;4998605;28;20463;-74
2022/07/08 01:31:13;;;;;;;6.30;2.30;;;18.10;72.60;;;;;;4998359;28;20956;-73
2022/07/08 01:33:40;;;;;;;6.87;2.10;;;18.10;72.90;;;;;;4998414;28;20499;-73
2022/07/08 01:36:08;;;;;;;6.90;1.90;;;18.10;73.60;;;;;;4998727;28;20456;-73
2022/07/08 01:38:36;;;;;;;6.57;2.20;;;18.10;74.00;;;;;;4998720;28;20465;-73
2022/07/08 01:41:03;;;;;;;11.70;2.70;;;18.10;74.20;;;;;;4998026;28;20857;-73
2022/07/08 01:43:29;;;;;;;6.00;1.83;;;18.20;74.30;;;;;;4998237;28;20831;-73
2022/07/08 01:45:56;;;;;;;5.63;2.43;;;18.30;74.40;;;;;;4998927;28;20454;-73
2022/07/08 01:48:23;;;;;;;8.03;2.00;;;18.30;74.00;;;;;;4998474;28;20455;-73
2022/07/08 01:50:50;;;;;;;5.83;2.33;;;18.30;74.00;;;;;;4998479;28;20444;-73
2022/07/08 01:53:17;;;;;;;6.90;2.30;;;18.20;74.00;;;;;;5010466;28;20479;-72
2022/07/08 01:55:45;;;;;;;9.00;2.10;;;18.20;74.30;;;;;;5016437;28;20450;-72
2022/07/08 01:58:12;;;;;;;4.00;2.03;;;18.20;74.70;;;;;;5002216;28;20441;-73
2022/07/08 02:00:39;;;;;;;6.20;1.90;;;18.20;74.90;;;;;;4997500;28;20456;-73
2022/07/08 02:03:06;;;;;;;5.60;1.80;;;18.20;74.60;;;;;;4996786;28;20455;-72
2022/07/08 02:05:34;;;;;;;6.00;1.87;;;18.20;74.50;;;;;;4996974;28;20452;-73
2022/07/08 02:08:02;;;;;;;3.90;1.63;;;18.20;74.30;;;;;;4998033;28;20480;-73
2022/07/08 02:12:18;;;;;;;10.17;2.27;;;18.20;74.20;;;;;;4997603;28;20836;-73
2022/07/08 02:13:17;;;;;;;5.80;1.80;;;18.20;74.10;;;;;;4997719;28;20492;-73
2022/07/08 02:15:44;;;;;;;6.70;1.73;;;18.20;74.20;;;;;;4997820;28;20452;-73
2022/07/08 02:18:11;;;;;;;6.73;2.50;;;18.30;74.10;;;;;;4997066;28;20460;-73
2022/07/08 02:20:38;;;;;;;6.60;1.80;;;18.30;74.30;;;;;;4997716;28;20460;-73
2022/07/08 02:23:05;;;;;;;8.67;2.23;;;18.20;74.20;;;;;;4997503;28;20440;-73
2022/07/08 02:25:32;;;;;;;7.97;2.50;;;18.10;73.70;;;;;;4997227;28;20452;-73
2022/07/08 02:28:01;;;;;;;6.20;2.00;;;18.20;74.10;;;;;;4996455;28;20491;-73
2022/07/08 02:30:29;;;;;;;6.40;2.40;;;18.10;74.10;;;;;;4996488;28;20454;-73
2022/07/08 02:32:56;;;;;;;3.30;1.70;;;18.10;74.50;;;;;;4996942;28;20862;-73
2022/07/08 02:35:23;;;;;;;9.63;2.40;;;18.20;74.50;;;;;;4997282;28;20480;-74
2022/07/08 02:37:50;;;;;;;5.50;1.97;;;18.20;74.40;;;;;;4995855;28;20464;-73
2022/07/08 02:40:16;;;;;;;8.50;2.27;;;18.10;74.70;;;;;;4996776;28;20444;-73
2022/07/08 02:42:43;;;;;;;7.70;2.20;;;18.00;74.80;;;;;;4997042;28;20445;-73
2022/07/08 02:45:11;;;;;;;7.07;2.17;;;18.10;75.10;;;;;;4996598;28;21003;-73
2022/07/08 02:47:39;;;;;;;9.00;3.40;;;18.10;75.40;;;;;;4997135;28;20546;-73
2022/07/08 02:50:07;;;;;;;8.17;2.70;;;18.10;75.70;;;;;;4996682;28;20467;-73
2022/07/08 02:52:35;;;;;;;7.27;2.10;;;18.00;75.90;;;;;;4996135;28;20459;-73
2022/07/08 02:55:03;;;;;;;14.13;2.77;;;17.90;75.70;;;;;;4996049;28;20523;-73
2022/07/08 02:57:29;;;;;;;5.63;2.00;;;17.90;76.10;;;;;;4997108;28;20448;-73
2022/07/08 02:59:56;;;;;;;7.37;2.17;;;17.80;76.30;;;;;;4997238;28;20460;-73
2022/07/08 03:02:23;;;;;;;6.40;2.23;;;17.70;76.40;;;;;;4996669;28;20453;-73
2022/07/08 03:04:53;;;;;;;3.50;2.00;;;17.70;76.90;;;;;;4996922;28;20472;-73
2022/07/08 03:07:20;;;;;;;7.93;2.30;;;17.60;76.80;;;;;;4996394;28;20920;-73
2022/07/08 03:09:47;;;;;;;7.73;2.30;;;17.50;77.50;;;;;;4996601;28;20483;-73
2022/07/08 03:12:14;;;;;;;5.03;2.37;;;17.50;77.80;;;;;;4996267;28;20995;-73
2022/07/08 03:14:41;;;;;;;5.50;1.50;;;17.40;78.30;;;;;;4996874;28;20492;-73
2022/07/08 03:17:08;;;;;;;7.10;2.30;;;17.40;78.10;;;;;;4996085;28;20460;-73
2022/07/08 03:19:35;;;;;;;4.40;1.97;;;17.40;78.40;;;;;;4996533;28;20480;-73
2022/07/08 03:22:03;;;;;;;5.37;2.20;;;17.30;78.70;;;;;;4996233;28;20486;-73
2022/07/08 03:24:30;;;;;;;4.40;1.93;;;17.40;78.90;;;;;;4996498;28;20460;-73
2022/07/08 03:26:57;;;;;;;8.87;2.40;;;17.30;78.60;;;;;;4996222;28;20982;-73
2022/07/08 03:29:24;;;;;;;7.00;2.13;;;17.40;78.60;;;;;;4995991;28;20956;-73
2022/07/08 03:31:51;;;;;;;4.40;1.53;;;17.40;78.60;;;;;;4996140;28;20948;-73
2022/07/08 03:34:18;;;;;;;5.33;2.27;;;17.40;78.60;;;;;;4995596;28;21008;-73
2022/07/08 03:36:44;;;;;;;8.57;2.60;;;17.40;78.70;;;;;;4996273;28;20455;-73
2022/07/08 03:39:13;;;;;;;4.53;1.60;;;17.40;78.50;;;;;;4996505;28;20441;-73
2022/07/08 03:41:38;;;;;;;8.50;2.93;;;17.40;78.30;;;;;;4995989;28;20471;-73
2022/07/08 03:44:05;;;;;;;3.77;1.90;;;17.40;77.50;;;;;;4995890;28;20484;-72
2022/07/08 03:46:32;;;;;;;6.33;2.10;;;17.50;78.20;;;;;;4996973;28;20205;-73
2022/07/08 03:48:59;;;;;;;5.73;1.67;;;17.50;78.40;;;;;;4995302;28;20974;-73
2022/07/08 03:51:26;;;;;;;7.07;1.70;;;17.60;78.40;;;;;;4996169;28;20444;-73
2022/07/08 03:53:53;;;;;;;6.97;2.10;;;17.60;78.40;;;;;;4995831;28;20498;-73
2022/07/08 03:56:21;;;;;;;5.73;2.03;;;17.60;78.30;;;;;;4995992;28;20452;-73
2022/07/08 03:58:48;;;;;;;6.93;1.90;;;17.60;78.20;;;;;;4995569;28;20460;-73
2022/07/08 04:01:15;;;;;;;8.50;2.60;;;17.50;78.60;;;;;;4996046;28;20503;-73
2022/07/08 04:03:42;;;;;;;5.60;2.20;;;17.50;78.70;;;;;;4995702;28;20473;-73
2022/07/08 04:06:09;;;;;;;9.13;2.70;;;17.40;79.10;;;;;;4996096;28;20452;-73
2022/07/08 04:08:36;;;;;;;7.80;3.00;;;17.40;79.30;;;;;;4995510;28;20944;-72
2022/07/08 04:11:03;;;;;;;4.63;1.90;;;17.40;79.50;;;;;;4995557;28;20436;-73
2022/07/08 04:13:31;;;;;;;7.17;2.17;;;17.30;79.40;;;;;;4995593;28;20491;-73
2022/07/08 04:15:58;;;;;;;10.93;2.40;;;17.30;79.30;;;;;;4996223;28;20966;-72
2022/07/08 04:18:26;;;;;;;3.57;2.30;;;17.30;79.60;;;;;;4998930;28;20551;-72
2022/07/08 04:20:52;;;;;;;9.40;2.50;;;17.40;80.00;;;;;;4997634;28;20979;-72
2022/07/08 04:23:19;;;;;;;4.87;2.20;;;17.30;79.70;;;;;;4996530;28;20451;-73
2022/07/08 04:25:46;;;;;;;6.27;2.27;;;17.30;79.40;;;;;;4995500;28;20459;-73
2022/07/08 04:28:13;;;;;;;6.03;2.33;;;17.30;79.50;;;;;;4995617;28;20452;-73
2022/07/08 04:30:41;;;;;;;7.03;1.70;;;17.30;79.90;;;;;;4995837;28;20466;-73
2022/07/08 04:33:09;;;;;;;4.90;2.37;;;17.30;79.80;;;;;;4995686;28;20457;-73
2022/07/08 04:35:36;;;;;;;5.23;2.57;;;17.30;80.10;;;;;;4995542;28;20551;-73
2022/07/08 04:38:03;;;;;;;12.43;2.60;;;17.20;79.50;;;;;;4995580;28;20487;-73
2022/07/08 04:40:30;;;;;;;7.70;2.70;;;17.20;80.00;;;;;;4995523;28;20587;-73
2022/07/08 04:42:57;;;;;;;7.73;2.53;;;17.20;80.40;;;;;;4995544;28;20448;-72
2022/07/08 04:45:24;;;;;;;6.30;2.30;;;17.10;80.40;;;;;;4995278;28;20527;-73
2022/07/08 04:47:53;;;;;;;9.00;2.77;;;17.10;80.50;;;;;;4994972;28;20510;-73
2022/07/08 04:50:20;;;;;;;5.97;2.67;;;17.10;80.70;;;;;;4995275;28;20453;-73
2022/07/08 04:52:47;;;;;;;10.40;2.53;;;17.00;81.20;;;;;;4995428;28;20459;-73
2022/07/08 04:55:28;;;;;;;17.70;3.10;;;17.00;81.50;;;;;;4995369;28;20496;-73
2022/07/08 04:57:55;;;;;;;8.40;2.80;;;16.90;81.40;;;;;;4995495;28;20506;-73
2022/07/08 05:00:23;;;;;;;7.73;2.50;;;16.90;81.60;;;;;;4995346;28;20452;-73
2022/07/08 05:02:50;;;;;;;6.73;3.30;;;16.90;82.00;;;;;;4998659;28;20463;-73
2022/07/08 05:05:18;;;;;;;7.17;3.17;;;16.80;82.60;;;;;;4999258;28;20472;-73
2022/07/08 05:07:45;;;;;;;7.57;2.60;;;16.80;82.80;;;;;;4999010;28;20455;-73
2022/07/08 05:10:12;;;;;;;11.33;2.30;;;16.80;83.40;;;;;;4999154;28;20463;-73
2022/07/08 05:12:39;;;;;;;7.33;2.43;;;16.80;83.90;;;;;;4999239;28;20464;-73
2022/07/08 05:15:07;;;;;;;11.43;3.13;;;16.80;83.60;;;;;;4998906;28;20498;-73
2022/07/08 05:17:34;;;;;;;12.13;3.00;;;16.90;83.80;;;;;;4999431;28;20448;-73
2022/07/08 05:20:00;;;;;;;7.87;3.47;;;16.90;83.50;;;;;;4999088;28;20462;-73
2022/07/08 05:22:28;;;;;;;9.70;3.30;;;17.00;83.20;;;;;;4999541;28;20463;-72
2022/07/08 05:24:55;;;;;;;6.30;2.50;;;17.10;83.20;;;;;;5000418;28;20468;-73
2022/07/08 05:27:22;;;;;;;8.87;3.10;;;17.10;82.90;;;;;;4998617;28;20448;-72
2022/07/08 05:29:49;;;;;;;5.90;2.67;;;17.20;82.60;;;;;;4998775;28;20463;-73
2022/07/08 05:32:16;;;;;;;12.70;2.67;;;17.20;82.40;;;;;;4998906;28;20456;-71
2022/07/08 05:34:44;;;;;;;10.90;3.30;;;17.30;82.00;;;;;;4998239;28;20551;-73
2022/07/08 05:37:11;;;;;;;7.27;2.87;;;17.30;82.10;;;;;;4998854;28;20460;-73
2022/07/08 05:39:39;;;;;;;10.33;3.27;;;17.40;81.90;;;;;;4999712;28;20455;-73
2022/07/08 05:42:07;;;;;;;7.70;2.33;;;17.40;81.20;;;;;;4998604;28;20460;-73
2022/07/08 05:44:34;;;;;;;6.83;2.60;;;17.50;80.80;;;;;;4998011;28;20829;-72
2022/07/08 05:47:00;;;;;;;6.03;2.50;;;17.60;80.60;;;;;;4999329;28;20552;-73
2022/07/08 05:49:27;;;;;;;5.43;3.00;;;17.70;79.70;;;;;;4998579;28;20452;-73
2022/07/08 05:51:54;;;;;;;7.20;2.83;;;17.70;78.60;;;;;;4998434;28;20456;-73
2022/07/08 05:54:21;;;;;;;9.63;2.20;;;17.70;78.60;;;;;;4998335;28;20488;-73
2022/07/08 05:56:49;;;;;;;5.00;2.20;;;17.80;78.70;;;;;;4997791;28;20951;-73
2022/07/08 05:59:16;;;;;;;4.03;2.00;;;17.80;78.50;;;;;;4997423;28;20966;-73
2022/07/08 06:01:43;;;;;;;6.10;2.23;;;17.90;78.40;;;;;;4997915;28;20439;-73
2022/07/08 06:04:10;;;;;;;7.80;2.27;;;18.00;78.60;;;;;;4997346;28;20468;-73
2022/07/08 06:06:37;;;;;;;4.27;2.07;;;18.10;78.30;;;;;;4997765;28;20448;-73
2022/07/08 06:09:04;;;;;;;7.10;1.90;;;18.20;77.40;;;;;;4997891;28;20452;-73
2022/07/08 06:11:31;;;;;;;4.33;1.93;;;18.20;76.60;;;;;;4998364;28;20460;-73
2022/07/08 06:14:00;;;;;;;5.83;1.57;;;18.30;76.20;;;;;;4997204;28;20532;-72
2022/07/08 06:16:27;;;;;;;8.90;2.33;;;18.40;76.30;;;;;;4997839;28;20461;-73
2022/07/08 06:18:53;;;;;;;6.60;2.20;;;18.50;75.30;;;;;;4997692;28;20449;-73
2022/07/08 06:21:20;;;;;;;12.20;2.20;;;18.70;74.70;;;;;;4997914;28;20452;-73
2022/07/08 06:23:47;;;;;;;8.07;2.47;;;18.70;74.30;;;;;;4997418;28;20460;-73
2022/07/08 06:26:14;;;;;;;6.03;2.00;;;18.80;73.50;;;;;;4997568;28;20506;-73
2022/07/08 06:28:41;;;;;;;6.97;1.93;;;18.90;72.80;;;;;;4998269;28;20798;-73
2022/07/08 06:31:09;;;;;;;3.60;1.47;;;19.00;72.00;;;;;;4997350;28;20978;-73
2022/07/08 06:33:36;;;;;;;9.87;2.73;;;19.10;71.80;;;;;;4996964;28;20483;-72
2022/07/08 06:36:03;;;;;;;5.93;1.50;;;19.30;71.70;;;;;;4998061;28;20464;-73
2022/07/08 06:38:30;;;;;;;4.30;1.63;;;19.40;70.90;;;;;;4996896;28;20456;-73
2022/07/08 06:40:57;;;;;;;3.40;1.37;;;19.60;70.50;;;;;;4997254;28;20448;-73
2022/07/08 06:43:23;;;;;;;8.70;1.90;;;19.60;68.20;;;;;;4997253;28;20456;-73
2022/07/08 06:45:50;;;;;;;6.40;1.63;;;19.70;68.20;;;;;;4997980;28;20971;-73
2022/07/08 06:48:19;;;;;;;3.97;1.30;;;19.80;68.90;;;;;;4997925;28;20452;-73
2022/07/08 06:50:45;;;;;;;6.70;1.30;;;20.00;68.00;;;;;;4998777;28;20475;-73
2022/07/08 06:53:13;;;;;;;3.20;1.00;;;20.20;67.60;;;;;;4998861;28;20457;-73
2022/07/08 06:55:40;;;;;;;4.23;1.60;;;20.30;64.50;;;;;;4999624;28;20520;-73
2022/07/08 06:58:07;;;;;;;9.20;1.77;;;20.40;64.80;;;;;;5002956;28;20499;-74
2022/07/08 07:00:34;;;;;;;3.50;1.50;;;20.50;64.60;;;;;;5000527;28;20466;-73
2022/07/08 07:03:01;;;;;;;3.90;1.23;;;20.60;64.20;;;;;;5001171;28;20452;-73
2022/07/08 07:05:29;;;;;;;3.50;1.50;;;20.70;64.10;;;;;;5001794;28;20483;-73
2022/07/08 07:07:56;;;;;;;5.90;1.73;;;20.80;62.10;;;;;;5000262;28;20834;-73
2022/07/08 07:10:23;;;;;;;5.33;1.90;;;20.90;62.70;;;;;;5000212;28;20448;-73
2022/07/08 07:12:50;;;;;;;8.57;1.70;;;21.00;62.20;;;;;;4998080;28;20457;-73
2022/07/08 07:15:16;;;;;;;4.47;1.47;;;20.90;61.30;;;;;;4996605;28;20492;-73
2022/07/08 07:17:43;;;;;;;3.53;1.90;;;20.90;61.80;;;;;;4997127;28;20474;-73
2022/07/08 07:20:11;;;;;;;5.50;1.70;;;20.80;60.90;;;;;;4997041;28;20452;-73
2022/07/08 07:22:40;;;;;;;4.30;1.30;;;20.70;61.10;;;;;;4996551;28;21023;-73
2022/07/08 07:25:08;;;;;;;5.83;1.43;;;20.80;61.70;;;;;;4995968;28;20487;-74
2022/07/08 07:27:35;;;;;;;5.30;1.77;;;20.80;59.80;;;;;;4996702;28;20451;-74
2022/07/08 07:30:02;;;;;;;6.00;1.73;;;20.80;61.20;;;;;;4996693;28;20448;-73
2022/07/08 07:32:28;;;;;;;6.40;1.50;;;21.00;62.00;;;;;;4996413;28;20448;-73
2022/07/08 07:34:55;;;;;;;5.10;1.30;;;21.20;61.50;;;;;;4996168;28;20492;-74
2022/07/08 07:37:22;;;;;;;8.30;1.60;;;21.50;60.20;;;;;;4996428;28;20448;-74
2022/07/08 07:39:50;;;;;;;6.30;1.83;;;21.70;58.90;;;;;;4997210;28;20496;-73
2022/07/08 07:42:17;;;;;;;5.00;1.43;;;21.90;58.50;;;;;;4999213;28;20456;-73
2022/07/08 07:44:44;;;;;;;4.10;1.27;;;22.20;58.30;;;;;;4998927;28;20480;-73
2022/07/08 07:47:11;;;;;;;7.47;1.27;;;22.40;57.70;;;;;;4997011;28;20445;-73
2022/07/08 07:49:38;;;;;;;4.20;1.30;;;22.70;57.20;;;;;;4996308;28;20457;-73
2022/07/08 07:52:05;;;;;;;4.70;2.10;;;23.00;56.90;;;;;;4995692;28;20449;-74
2022/07/08 07:54:32;;;;;;;3.70;1.37;;;23.30;55.50;;;;;;4995137;28;20587;-74
2022/07/08 07:57:00;;;;;;;5.00;1.50;;;23.50;55.20;;;;;;4995582;28;20444;-74
2022/07/08 07:59:27;;;;;;;5.90;1.30;;;23.80;54.10;;;;;;4995480;28;20456;-74
2022/07/08 08:01:54;;;;;;;8.10;1.53;;;24.10;53.70;;;;;;4995646;28;20494;-74
2022/07/08 08:04:21;;;;;;;4.73;1.47;;;24.50;52.90;;;;;;4995460;28;21010;-75
2022/07/08 08:06:48;;;;;;;3.30;1.30;;;24.50;49.70;;;;;;4995278;28;20459;-74
2022/07/08 08:09:15;;;;;;;5.50;1.90;;;24.40;49.40;;;;;;4995161;28;20448;-74
2022/07/08 08:11:41;;;;;;;3.13;1.60;;;24.00;50.50;;;;;;4995195;28;20452;-74
2022/07/08 08:14:10;;;;;;;3.93;1.30;;;23.80;50.80;;;;;;4994772;28;20472;-74
2022/07/08 08:16:36;;;;;;;5.10;2.10;;;23.60;51.00;;;;;;4995032;28;20460;-74
2022/07/08 08:19:03;;;;;;;4.90;2.10;;;23.30;51.50;;;;;;4995078;28;20944;-74
2022/07/08 08:21:30;;;;;;;6.13;1.70;;;23.10;51.50;;;;;;4995487;28;20451;-74
2022/07/08 08:23:57;;;;;;;4.07;1.13;;;22.90;51.50;;;;;;4995048;28;20477;-74
2022/07/08 08:26:24;;;;;;;6.47;1.80;;;22.90;52.60;;;;;;4995105;28;20470;-74
2022/07/08 08:28:51;;;;;;;3.30;1.50;;;23.00;53.30;;;;;;4995275;28;20450;-74
2022/07/08 08:31:19;;;;;;;4.10;1.13;;;23.20;52.90;;;;;;4994768;28;20462;-74
2022/07/08 08:33:46;;;;;;;3.70;1.90;;;23.50;53.10;;;;;;4994767;28;21003;-75
2022/07/08 08:36:13;;;;;;;7.53;1.57;;;23.90;52.00;;;;;;4994638;28;20488;-74
2022/07/08 08:38:40;;;;;;;5.27;1.60;;;24.20;52.00;;;;;;4994779;28;20940;-74
2022/07/08 08:41:07;;;;;;;5.70;1.20;;;24.40;52.10;;;;;;4994924;28;20474;-74
2022/07/08 08:43:34;;;;;;;4.00;1.40;;;24.60;51.80;;;;;;4994748;28;21276;-75
2022/07/08 08:46:02;;;;;;;3.77;1.40;;;24.90;48.70;;;;;;4995127;28;20429;-74
2022/07/08 08:48:35;;;;;;;4.80;1.20;;;25.10;47.90;;;;;;4995309;28;20436;-74
2022/07/08 08:51:03;;;;;;;5.40;1.83;;;25.40;47.40;;;;;;4995005;28;20444;-75
2022/07/08 08:53:37;;;;;;;5.90;1.90;;;25.70;46.00;;;;;;4994708;28;20507;-75
2022/07/08 08:56:08;;;;;;;5.20;1.83;;;25.80;46.50;;;;;;4995087;28;20562;-75
2022/07/08 08:58:38;;;;;;;6.83;1.90;;;25.80;46.10;;;;;;4994919;28;20785;-74
2022/07/08 09:01:06;;;;;;;5.73;1.93;;;25.80;45.10;;;;;;4994743;28;20433;-74
2022/07/08 09:03:35;;;;;;;5.53;1.60;;;25.90;45.90;;;;;;4994813;28;20475;-75
2022/07/08 09:06:02;;;;;;;3.63;2.00;;;25.80;46.20;;;;;;4994590;28;20448;-75
2022/07/08 09:08:28;;;;;;;11.87;2.30;;;25.70;46.00;;;;;;4994927;28;20451;-75
2022/07/08 09:10:55;;;;;;;5.10;1.87;;;25.60;46.30;;;;;;4995004;28;20929;-74
2022/07/08 09:13:25;;;;;;;3.97;1.30;;;25.70;46.80;;;;;;4994854;28;20522;-74
2022/07/08 09:15:54;;;;;;;4.97;2.00;;;26.00;47.30;;;;;;4994260;28;21064;-75
2022/07/08 09:18:26;;;;;;;2.70;1.47;;;26.30;46.80;;;;;;4994379;28;20848;-74
2022/07/08 09:20:56;;;;;;;6.50;1.70;;;26.60;45.30;;;;;;4994409;28;20444;-74
2022/07/08 09:23:26;;;;;;;5.20;2.03;;;26.70;43.80;;;;;;4994559;28;20457;-72
2022/07/08 09:25:54;;;;;;;5.40;1.10;;;26.60;43.90;;;;;;4994833;28;20510;-75
2022/07/08 09:28:29;;;;;;;6.47;2.00;;;26.90;44.10;;;;;;4994547;28;20444;-74
2022/07/08 09:30:57;;;;;;;4.00;2.10;;;27.20;42.70;;;;;;4994390;28;20443;-75
2022/07/08 09:33:25;;;;;;;4.80;1.77;;;27.40;41.50;;;;;;4994199;28;20981;-74
2022/07/08 09:35:52;;;;;;;4.93;1.67;;;27.40;40.80;;;;;;4994346;28;21061;-74
2022/07/08 09:38:21;;;;;;;4.43;1.53;;;27.60;41.50;;;;;;4993846;28;20459;-75
2022/07/08 09:40:55;;;;;;;4.90;1.40;;;27.90;42.00;;;;;;4994237;28;20457;-74
2022/07/08 09:43:23;;;;;;;6.80;1.70;;;28.20;41.40;;;;;;4994180;28;20459;-75
2022/07/08 09:45:50;;;;;;;6.30;1.83;;;28.80;41.30;;;;;;4993866;28;20838;-75
2022/07/08 09:48:17;;;;;;;6.63;1.97;;;29.40;40.00;;;;;;4996481;28;20456;-76
2022/07/08 09:50:45;;;;;;;2.60;1.53;;;29.90;36.60;;;;;;4997842;28;20444;-76
2022/07/08 09:53:14;;;;;;;4.03;1.40;;;30.40;36.60;;;;;;4997715;28;20463;-77
2022/07/08 09:55:44;;;;;;;5.60;2.30;;;30.70;35.40;;;;;;4997247;28;20495;-77
2022/07/08 09:58:14;;;;;;;3.43;1.77;;;30.90;35.50;;;;;;4997534;28;20638;-76
2022/07/08 10:00:43;;;;;;;4.10;1.80;;;31.10;34.50;;;;;;4997635;28;20459;-77
2022/07/08 10:03:11;;;;;;;6.50;2.10;;;31.20;33.70;;;;;;4997434;28;20478;-76
2022/07/08 10:05:38;;;;;;;2.57;1.20;;;31.30;33.70;;;;;;4997440;28;20498;-76
2022/07/08 10:08:05;;;;;;;7.23;2.20;;;31.40;33.50;;;;;;4997420;28;20462;-76
2022/07/08 10:10:34;;;;;;;5.87;2.10;;;31.60;33.70;;;;;;4997039;28;20452;-76
2022/07/08 10:13:03;;;;;;;4.50;1.83;;;31.50;32.50;;;;;;4997247;28;20511;-76
2022/07/08 10:15:32;;;;;;;4.93;2.03;;;31.40;33.20;;;;;;5000740;28;20484;-76
2022/07/08 10:18:06;;;;;;;7.27;1.77;;;31.10;33.60;;;;;;4998030;28;20504;-77
2022/07/08 10:20:36;;;;;;;8.63;2.00;;;30.90;32.80;;;;;;4997080;28;20440;-76
2022/07/08 10:23:08;;;;;;;6.10;1.47;;;30.80;33.80;;;;;;4996831;28;20460;-76
2022/07/08 10:25:36;;;;;;;3.60;1.60;;;31.00;34.10;;;;;;5000177;28;20862;-76
2022/07/08 10:28:10;;;;;;;5.63;1.63;;;31.40;34.50;;;;;;4996816;28;20456;-76
2022/07/08 10:30:54;;;;;;;5.70;1.30;;;31.90;34.00;;;;;;4996801;28;20440;-76
2022/07/08 10:33:25;;;;;;;5.00;1.77;;;32.40;32.80;;;;;;4996641;28;20456;-76
2022/07/08 10:36:06;;;;;;;3.90;1.93;;;33.00;32.70;;;;;;4996491;28;20554;-76
2022/07/08 10:38:38;;;;;;;2.30;1.57;;;33.80;31.10;;;;;;4996730;28;20505;-76
2022/07/08 10:41:08;;;;;;;6.53;1.80;;;34.30;28.60;;;;;;4996801;28;20442;-75
2022/07/08 10:43:37;;;;;;;4.20;1.73;;;34.50;29.30;;;;;;4998943;28;20491;-75
2022/07/08 10:46:12;;;;;;;5.23;2.07;;;34.50;28.30;;;;;;4999952;28;20436;-78
2022/07/08 10:48:56;;;;;;;4.47;1.53;;;34.20;28.70;;;;;;4996292;28;20442;-77
2022/07/08 10:51:50;;;;;;;3.67;1.80;;;33.90;28.70;;;;;;4996446;28;20424;-77
2022/07/08 10:54:35;;;;;;;4.17;2.00;;;33.50;29.30;;;;;;4996493;28;20474;-77
2022/07/08 10:57:02;;;;;;;10.43;2.63;;;33.00;30.20;;;;;;4997780;28;20503;-77
2022/07/08 10:59:32;;;;;;;8.93;2.13;;;32.60;30.20;;;;;;4996233;28;20813;-76
2022/07/08 11:02:03;;;;;;;6.60;1.73;;;32.20;31.30;;;;;;4996742;28;20436;-76
2022/07/08 11:04:45;;;;;;;4.80;2.20;;;32.00;32.40;;;;;;4996772;28;20825;-76
2022/07/08 11:07:26;;;;;;;6.73;2.10;;;32.00;30.90;;;;;;4997557;28;20827;-75
2022/07/08 11:09:55;;;;;;;3.97;1.70;;;32.40;32.20;;;;;;4996250;28;20431;-75
2022/07/08 11:12:25;;;;;;;5.60;2.20;;;32.90;31.40;;;;;;4995583;28;20466;-75
2022/07/08 11:14:55;;;;;;;4.10;1.57;;;33.40;30.30;;;;;;4995443;28;20503;-76
2022/07/08 11:17:24;;;;;;;3.00;1.67;;;33.80;30.00;;;;;;4996390;28;20479;-75
2022/07/08 11:19:52;;;;;;;7.70;2.13;;;34.00;29.00;;;;;;4995897;28;20479;-77
2022/07/08 11:22:20;;;;;;;6.20;2.20;;;34.20;28.80;;;;;;4996070;28;20464;-76
2022/07/08 11:24:48;;;;;;;6.20;2.13;;;34.40;28.30;;;;;;4978861;28;20479;-76
2022/07/08 11:27:16;;;;;;;3.77;2.03;;;34.40;29.30;;;;;;4995792;28;20817;-76
2022/07/08 11:30:08;;;;;;;5.43;2.27;;;34.60;28.80;;;;;;4995617;28;20521;-76
2022/07/08 11:32:36;;;;;;;5.33;2.00;;;34.70;27.70;;;;;;4992190;28;20443;-76
2022/07/08 11:35:03;;;;;;;5.03;2.20;;;34.60;28.30;;;;;;4995751;28;20843;-76
2022/07/08 11:37:32;;;;;;;6.57;2.10;;;34.70;28.50;;;;;;4995819;28;20534;-76
2022/07/08 11:39:59;;;;;;;8.93;2.07;;;34.70;28.20;;;;;;4996254;28;20458;-75
2022/07/08 11:42:26;;;;;;;5.30;2.03;;;34.90;27.40;;;;;;4995746;28;20454;-75
2022/07/08 11:44:53;;;;;;;2.60;1.60;;;35.40;28.60;;;;;;4995312;28;20483;-75
2022/07/08 11:47:23;;;;;;;6.73;1.83;;;36.10;27.90;;;;;;4995671;28;20452;-75
2022/07/08 11:49:50;;;;;;;6.03;1.87;;;36.60;26.90;;;;;;4996109;28;20920;-75
2022/07/08 11:52:18;;;;;;;5.30;1.80;;;36.70;25.80;;;;;;4995427;28;20455;-76
2022/07/08 11:54:47;;;;;;;5.73;2.00;;;36.80;25.50;;;;;;4995450;28;20228;-75
2022/07/08 11:57:15;;;;;;;5.03;2.27;;;36.70;26.30;;;;;;4994990;28;20224;-75
2022/07/08 11:59:44;;;;;;;4.50;1.80;;;36.40;26.50;;;;;;4995033;28;20948;-76
2022/07/08 12:02:12;;;;;;;7.40;2.00;;;35.90;26.80;;;;;;4994864;28;20463;-75
2022/07/08 12:04:44;;;;;;;4.00;1.77;;;35.40;27.50;;;;;;4994838;28;21005;-76
2022/07/08 12:07:20;;;;;;;5.47;2.30;;;35.00;27.50;;;;;;4995311;28;20827;-75
2022/07/08 12:09:54;;;;;;;6.20;2.20;;;34.70;28.60;;;;;;4995728;28;20448;-76
2022/07/08 12:12:22;;;;;;;4.30;1.83;;;34.60;28.70;;;;;;4995963;28;20502;-76
2022/07/08 12:14:49;;;;;;;9.40;2.07;;;34.60;29.40;;;;;;4995055;28;20475;-78
2022/07/08 12:17:23;;;;;;;7.83;2.13;;;34.60;28.90;;;;;;4995143;28;20488;-78
2022/07/08 12:19:52;;;;;;;8.23;2.20;;;34.70;28.90;;;;;;4995779;28;20527;-78
2022/07/08 12:22:44;;;;;;;5.63;2.10;;;34.60;28.60;;;;;;4994817;28;20506;-77
2022/07/08 12:25:11;;;;;;;5.90;1.97;;;34.60;29.40;;;;;;4994287;28;20527;-77
2022/07/08 12:27:38;;;;;;;4.73;1.97;;;34.60;29.40;;;;;;4994542;28;20443;-77
2022/07/08 12:30:07;;;;;;;7.23;1.73;;;34.90;28.90;;;;;;4995203;28;20455;-77
2022/07/08 12:32:37;;;;;;;6.23;1.87;;;35.50;28.60;;;;;;4994255;28;20463;-78
2022/07/08 12:35:07;;;;;;;4.57;1.97;;;36.60;27.70;;;;;;4995264;28;20483;-78
2022/07/08 12:37:34;;;;;;;4.10;1.83;;;37.70;26.70;;;;;;4996170;28;20562;-78
2022/07/08 12:40:13;;;;;;;2.42;1.42;;;38.40;25.20;;;;;;4996252;28;20208;-78
2022/07/08 12:42:40;;;;;;;3.47;1.70;;;38.60;25.30;;;;;;4994929;28;20193;-76
2022/07/08 12:45:14;;;;;;;4.70;1.42;;;39.40;25.30;;;;;;4994313;28;20243;-77
2022/07/08 12:47:41;;;;;;;7.15;1.20;;;40.80;24.00;;;;;;4995211;28;20188;-75
2022/07/08 12:50:10;;;;;;;4.15;1.65;;;42.10;21.80;;;;;;4994852;28;20212;-75